Timeline UpdatesTrip UpdatesNews PostsPvt PostsTravel TipsAdmin PostsConv PostsFollowed PostsChat RequestsBlog PostsPNR Posts

Disclaimer
Search
 
 
Fri Sep 19, 2014 13:20:30 ISTHomeTrainsΣChainsAtlasPNRForumGalleryNewsFAQTripsMembersLoginFeedback
No Recent News for this Train
Other Trains in the News **new
Latest...
11092 / 11091 Pune – Bhuj Express will be augmented from 31.3.2014 Ex Pune and from 2.4.2014 Ex Bhuj.
Fri Mar 28, 2014 (04:43PM)
⇐ Return Journey: Train# 11091

11092/Pune - Bhuj Ahimsa Express

Time-Table HAS CHANGED.
Sep 01 (11:40PM)
Change Departure Station:
Change Arrival Station:
Post a Train Travel TipPost a Train Travel Tip **new
Post a Comment/Question/Picture/VideoPost a Comment/Question/Picture/Video
Pantry/Catering
✕ NO Pantry Car
✓ Catering Avbl
Loco/Rake Reversals
GIMB/Gandhidham Junction (3);
RSA - Rake Sharing
12103/04 Lucknow Exp.
Rake/Coach Composition
AC1-1, 2A-1; 3A-2; SL-10; SLR-2; GEN-2; No Pantry; H1 permanently added as per http://indiarailinfo.com/news/post/indian-railways-news/89711
Loco
PUNE-ADI: KYN WCAM-2P / BRC WAG-5P ADI-BHUJ: VTA WDM-3A/3D
News    PNR    Forum    Time-Table    Availability    Fare Chart    Map    Arr/Dep History    Trips    Gallery    ΣChains    X/O    Timeline    
Travel Time: 19h 30m    22 halts    Distance: 989 km    Avg Speed: 50 km/hr
Type: Mail/Express
Zone: CR/Central
Departs @ 19:50
Platform# 1
 M     
Pune Junction/PUNE 
Arrives @ 15:20 +1 night
Platform# 1
  T    
Bhuj/BHUJ 

22 halts. 169 intermediate Stations between Pune Junction and Bhuj

Hide intermediate Stations  Show Old Time-Table

#CodeStation NameX/OArrivesAvgDepartsAvgHaltPFDay#KmSpeedElevZoneAddress
1PUNEPune Junction (6)»  -19:50-110.072556mCRPune 411001, Maharashtra
1.1SVJRShivajinagar (2)  19:52-19:52-  12.4 72549mCRPune 411005, Maharashtra
1.2KKKhadki (3)  19:55-19:55-  16.0 72562mCRPune 411003, Maharashtra
1.3DAPDDapodi (2)X  19:57-19:57-  18.1 72558mCRPune 411012, Maharashtra
1.4KSWDKasarwadi (2)X  20:00-20:00-  111.5 72558mCRPune 411034, Maharashtra
1.5PMPPimpri (2)  20:02-20:02-  114.1 72570mCRPune 411018, Maharashtra
1.6CCHChinchwad (4)  20:04-20:04-  116.3 72573mCRPune 411033, Maharashtra
1.7AKRDAkurdi (2)  20:06-20:06-  119.5 72583mCRPune 411035, Maharashtra
1.8DEHRDehu Road (4)  20:10-20:10-  124.5 72611mCRDehu 412101, Maharashtra
1.9BGWBegdewadi (2)X  20:13-20:13-  128.0 72594mCRBegdewadi, Maharashtra
1.10BGWIBegdaewadiX  20:13-20:13-  128.1 72594mCRTalegaon, Maharashtra
1.11SLRWShelarwadi (2)  20:14-20:14-  128.3 72594mCRShelarwadi Dist. Pune, Maharashtra
1.12GRWDGhorawadi (2)  20:16-20:16-  131.1 72596mCRGhorawadi, Maharashtra
1.13TGNTalegaon (2)  20:18-20:18-  134.1 72619mCRTalegaon Dabhade 410501, Maharashtra
1.14VDNVadgaon (2)  20:22-20:22-  138.1 72623mCRVadgaon, Maharashtra
1.15KNHEKanhe (2)  20:26-20:26-  143.2 72626mCRKanhe, Maharashtra
1.16KMSTKamshet (2)X  20:30-20:30-  147.8 72607mCRDist. Pune 410405, Maharashtra
1.17MVLMalavli (2)  20:37-20:37-  156.5 72616mCRMalavli 410405, Maharashtra
2LNLLonavala (3)  20:44 20:43-20:45-1 2m2163.640623mCRLonavala 410401, Maharashtra
2.1KADKhandala (3)  20:51-20:51-  167.4 40545mCRKhandala 410301, Maharashtra
2.2MHLCMonkey Hill (2)X  20:58-20:58-  172.6 40414mCRKhandala, Maharashtra
2.3NAGCNagargali  21:04-21:04-  176.4 40354mCRKhopoli, Maharashtra
2.4NNCNNagnath Cabin (1)  21:09-21:09-  179.5 40289mCRDolavali Khopoli (Chinchavali Marge), Maharashtra
2.5TKWThakurvadi  21:09-21:09-  179.9 40281mCRKhandala, Maharashtra
2.6PDIPalasdhari (4)  21:24-21:24-  189.4 4067mCRDist Raigad, Maharashtra
3KJTKarjat Junction (4)  21:28-21:30-2m2192.36057mCRKarjat, Maharashtra
3.1BVSBhivpuri Road (2)  21:37-21:37-  199.2 6050mCRBhivpuri Road, Maharashtra
3.2NRLNeral Junction (2)X  21:44-21:44-  1105.9 6042mCRNeral-410101 Dist. Raigad, Maharashtra
3.3SHLUShelu (2)X  21:48-21:48-  1110.0 6040mCRShelu, Maharashtra
3.4VGIVangani (2)  21:52-21:52-  1114.0 6042mCRVangani, Maharashtra
3.5BUDBadlapur (3)X  22:03-22:03-  1124.8 6018mCRBadlapur-421 503, Maharashtra
3.6ABHAmbernath (3)  22:10-22:10-  1132.4 6023mCRMaharashtra 421502, Maharashtra
3.7ULNRUlhasnagar (2)  22:13-22:13-  1134.9 6014mCRUlhasnagar Camp No.3, Maharashtra
3.8VLDIVithalwadi (2)X  22:15-22:15-  1136.8 6013mCRVitthalwadi, Maharashtra
4KYNKalyan Junction (8)X  22:20 22:17-22:25 22:20-5 3m71139.13910mCRKalyan 421301, Maharashtra
4.1THKThakurli (2)X  22:26-22:26-  1142.7 3914mCRThakurli, Maharashtra
4.2DIDombivli (5)  22:28-22:28-  1144.2 3911mCRDombivli, Maharashtra
4.3DCTLDombivli Ctl  22:34-22:34-  1147.9 392mCRDombivli, Maharashtra
4.4KOPRKopar (4)  22:36-22:36-  1149.2 390mCRKopar, Maharashtra
5BIRDBhiwandi Road (4)  22:48-22:50-2m--1157.13026mCRBhiwandi, Maharashtra
5.1KHBVKharbav (4)  23:06-23:06-  1165.3 308mCRThane, Maharashtra
5.2KARDKaman Road  23:23-23:23-  1173.5 3019mCRSection 2, Maharashtra
5.3JCNRJuchandra  23:34-23:34-  1179.1 304mCRNH 8, Maharashtra
6BSRVasai Road (7)XO  23:45-23:50-5m--1184.4647mWRVasai 401202, Maharashtra
6.1NSPNallasopara (4)  23:54-23:54-  1188.6 645mWRNallasopara station Rd, Maharashtra
6.2VRVirar (8)  23:58-23:58-  1192.8 646mWRDist. Palghar, Maharashtra
6.3VTNVaitarna (2)  00:06-00:06-  2201.3 643mWRDist. Palghar, Maharashtra
6.4SAHSaphale (2)  00:13-00:13-  2209.1 648mWRDist. Palghar, Maharashtra
6.5KLVKelve Road (3)  00:19-00:19-  2215.6 6410mWRDist. Palghar, Maharashtra
6.6PLGPalghar (3)  00:27-00:27-  2224.0 6419mWRPalghar, Maharashtra
6.7UOIUmroli (2)  00:33-00:33-  2230.4 648mWRBoisar, Maharashtra
6.8BORBoisar (3)  00:37-00:37-  2235.2 6417mWRBoisar Tel.no-02525-266626, Maharashtra
6.9VGNVangaon (3)  00:46-00:46-  2244.6 6411mWRDist. Palghar, Maharashtra
6.10DRDDahanu Road (5)XO  00:58-00:58-  2257.0 6412mWRDahanu, Maharashtra
6.11GVDGholvad (4)X  01:08-01:08-  2268.1 6414mWRGholvad, Maharashtra
6.12BRRDBordi Road (2)  01:13-01:13-  2273.0 6417mWRBordi, Maharashtra
6.13UBRUmbargam Road (3)  01:17-01:17-  2277.3 6430mWRUmbergaon, Gujarat
6.14SJNSanjan (3)X  01:22-01:22-  2282.6 6422mWRSanjan, Gujarat
6.15BLDBhilad (3)  01:32-01:32-  2294.2 6433mWRBhilad, Gujarat
6.16KEBKarambeli (2)X  01:37-01:37-  2299.0 6429mWRNational Highway 8, Gujarat
7VAPIVapi (3)X  01:44 01:43-01:46 01:45-2m12305.56127mWRVapi, Gujarat
7.1BAGDBagwada (2)X  01:52-01:52-  2312.2 6122mWRNH8, Gujarat
7.2UVDUdvada (3)  01:55-01:55-  2315.1 6118mWRUdvada, Gujarat
7.3PADPardi (3)X  02:00-02:00-  2321.0 6119mWRValsad, Gujarat
7.4ATULAtul (3)  02:04-02:04-  2325.0 6122mWRValsad, Gujarat
8BLValsad (3)X  02:11-02:13-2m22331.74915mWRValsad, Gujarat
8.1DGIDungri (3)  02:24-02:24-  2340.6 4920mWRNH 8, Gujarat
8.2JRSJoravasan (2)X  02:30-02:30-  2345.7 4915mWRJoravasan, Gujarat
8.3BIMBilimora Junction (4)X  02:35-02:35-  2349.6 4911mWRBilimora, Gujarat
8.4AMLAmalsad (3)  02:42-02:42-  2355.2 4912mWRAmalsad, Gujarat
8.5ACLAncheli (2)  02:47-02:47-  2359.0 4920mWRNavsari, Gujarat
8.6VDHVedchha (3)X  02:51-02:51-  2362.4 4913mWRNavsari, Gujarat
8.7HXRHansapore (2)  02:55-02:55-  2366.2 4915mWRHansapore, Gujarat
8.8GNSTGandhi Smriti (2)  02:57-02:57-  2367.8 4916mWRGandhi Smriti Navsari, Gujarat
9NVSNavsari (3)XO  03:02 03:01-03:04 03:03-2m--2370.83814mWRNavsari, Gujarat
9.1MRLMaroli (3)  03:16-03:16-  2379.3 3815mWRMaroli, Gujarat
9.2SCHSachin (3)  03:27-03:27-  2385.9 3811mWRKansad Road Sachin, Gujarat
9.3BHETBhestan (2)X  03:36-03:36-  2391.6 3813mWRSurat, Gujarat
9.4UDNUdhna Junction (3)  03:44-03:44-  2396.4 3816mWRUdhna 394210, Gujarat
10STSurat (4)X  03:50-03:55-5m12400.48119mWRSurat 395001, Gujarat
10.1URNUtran (3)  03:58-03:58-  2404.3 8115mWRSurat, Gujarat
10.2KSEKosad (2)  04:00-04:00-  2407.5 8117mWRSurat, Gujarat
10.3GTXGothangam (2)  04:03-04:03-  2411.1 8119mWRAmroli Sayan Rd, Gujarat
10.4SYNSayan (3)  04:05-04:05-  2414.1 8121mWRSayan Satellite town, Gujarat
10.5KDSDKudsad (2)  04:10-04:10-  2421.2 8118mWRNH 8, Gujarat
10.6KIMKim (2)X  04:13-04:13-  2424.0 8118mWRNH 8, Gujarat
10.7KSBKosamba Junction (3)X  04:18-04:18-  2431.8 8130mWRKosamba, Gujarat
10.8HATHathuran (2)  04:22-04:22-  2436.2 8132mWRKosamba, Gujarat
10.9PAOPanoli (3)  04:24-04:24-  2440.0 8129mWRPanoli, Gujarat
10.10SNJLSanjali (2)X  04:28-04:28-  2444.3 8123mWRSanjali, Gujarat
10.11AKVAnkleshwar Junction (4)X  04:32-04:32-  2450.4 8119mWRAnkleshwar, Gujarat
11BHBharuch Junction (5)  04:44 04:39-04:46 04:41-2m32459.77219mWRBharuch, Gujarat
11.1CVJChavaj (2)  04:45-04:45-  2464.7 7220mWRBharuch, Gujarat
11.2NIUNabipur (3)X  04:51-04:51-  2471.8 7224mWRNabipur, Gujarat
11.3VREVarediya (4)X  04:57-04:57-  2478.5 7221mWRNH 8, Gujarat
11.4PLJPalej (4)  05:02-05:02-  2485.1 7229mWRPalej, Gujarat
11.5LKDLakodara (4)  05:08-05:08-  2492.4 7226mWRNH 8, Gujarat
11.6MYGLMiyagam Karjan Junction NG  05:15-05:15-  2500.3 720mWRKarjan, Gujarat
11.7MYGMiyagam Karjan (2)X  05:15-05:15-  2500.4 7229mWRKarjan, Gujarat
11.8KSPRKashipura Sarar (2)  05:22-05:22-  2508.2 7226mWRGIDC Industrial Area, Gujarat
11.9ITAItola (4)  05:25-05:25-  2512.0 7227mWRNational Highway 8 Vadodara, Gujarat
11.10VRMVarnama (2)O  05:28-05:28-  2515.9 7228mWRVadodara, Gujarat
11.11MPRMakarpura (4)  05:33-05:33-  2521.5 7230mWRVadodara, Gujarat
11.12VSVishvamitri (4)  05:38-05:38-  2527.2 7230mWRVadodara, Gujarat
12BRCVadodara Junction (7)X  05:45 05:40-05:50 05:45-5m22530.26336mWRVadodara 390005, Gujarat
12.1BRGYVadodara D CabinO  05:46-05:46-  2530.8 6336mWRVadodara, Gujarat
12.2BJWBajva (3)  05:52-05:52-  2537.5 6338mWRVadodara, Gujarat
12.3KRCAKarachiya Yard  05:54-05:54-  2539.4 6339mWRVadodara, Gujarat
12.4RNORanoli (2)  05:55-05:55-  2541.2 6339mWRVadodara District, Gujarat
12.5NDRNandesari (2)X  05:59-05:59-  2545.4 6342mWRNandesari, Gujarat
12.6VDAVasad Junction (3)  06:04-06:04-  2550.4 6340mWRVasad, Gujarat
12.7ADDAdas Road (4)X  06:09-06:09-  2555.0 6342mWRNational Highway 8, Gujarat
12.8VXDVadod (3)X  06:12-06:12-  2559.1 6344mWRAnand District, Gujarat
13ANNDAnand Junction (6)X  06:26 06:19-06:28 06:21-2m22566.06244mWRAnand, Gujarat
13.1KBRVKanjari Boriyavi Junction (4)  06:28-06:28-  2573.4 6239mWRKanjari, Gujarat
13.2UTDUtarsanda (4)  06:34-06:34-  2579.0 6240mWRUttarsanda, Gujarat
14NDNadiad Junction (4)X  06:46 06:39-06:48 06:41-2m--2584.55737mWRNadiad, Gujarat
14.1GTEGothaj (2)  06:51-06:51-  2593.7 5732mWRState Highway 3, Gujarat
14.2MHDMahemdavad Kheda Road (4)X  07:00-07:00-  2602.0 5737mWRMahemdavad, Gujarat
14.3NEPNenpur (2)  07:04-07:04-  2606.2 5735mWRState Highway 3, Gujarat
14.4KANJKanij (3)X  07:07-07:07-  2609.0 5739mWRBareja-Barejadi Rd, Gujarat
14.5BJDBarejadi Nandej (3)  07:12-07:12-  2613.4 5742mWRBareja-Barejadi Rd, Gujarat
14.6GERGeratpur (2)X  07:15-07:15-  2616.8 5744mWRAhmadabad, Gujarat
14.7VTAVatva (4)X  07:21-07:21-  2622.0 5749mWRDist. Ahmedabad 382445, Gujarat
15MANManinagar (2)  07:28 07:26-07:30 07:28-2m12626.81150mWRAhmadabad, Gujarat
15.1KKFKankaria  07:35-07:35-  2628.2 1148mWRAhmedabad, Gujarat
16ADIAhmedabad Junction (12)X07:45-08:05-20m72630.05551mWRAhmedabad, Gujarat
16.1SBTASabarmati A Cabin  08:08-08:08-  2633.1 5556mWRSabarmati A Cabin, Gujarat
16.2SBTSabarmati Junction (3)  08:11-08:11-  2635.5 5552mWRAhmedabad, Gujarat
16.3SBISabarmati Junction (3)  08:11-08:11-  2635.5 5555mWRAhmadabad, Gujarat
16.4SBTFSabarmati F Cabin  08:12-08:12-  2636.4 5555mWRAhmedabad, Gujarat
16.5CLDYChandlodiya  08:17-08:17-  2641.2 5559mWRAhmedabad, Gujarat
16.6ABDAmbli RoadX  08:23-08:23-  2646.8 5550mWRAhmedabad, Gujarat
16.7GGMGora Ghuma  08:29-08:29-  2652.1 5545mWRParthna Upvan Rd, Gujarat
16.8SAUSanand  08:36-08:36-  2658.4 5540mWRSanand, Gujarat
16.9WSEVasan Iyawa  08:41-08:41-  2663.5 5536mWRState Highway 17, Gujarat
16.10CEChharodiX  08:47-08:47-  2669.1 5529mWRSH 17, Gujarat
16.11VCNVirochannagar  08:54-08:54-  2675.4 5533mWRState Highway 17, Gujarat
16.12JKAJakhvada  09:03-09:03-  2683.1 5531mWRState Highway 17, Gujarat
16.13XSKSokaliX  09:09-09:09-  2689.2 5527mWRSokali, Gujarat
17VGViramgam Junction (5)  09:16-09:18-2m--2695.47129mWRViramgam, Gujarat
17.1JNJhund  09:29-09:29-  2708.3 7123mWRState Highway 7, Gujarat
17.2SADLSadla  09:36-09:36-  2716.3 7115mWRSadla, Gujarat
17.3BAJNBajana  09:43-09:43-  2725.0 7112mWRState Highway 19, Gujarat
17.4JTXJatpipli  09:49-09:49-  2732.2 7125mWRDhg - Malwan, Gujarat
17.5VSVVasadva  09:59-09:59-  2743.5 7121mWRDhg - Malwan, Gujarat
18DHGDhrangadhra Junction (3)  10:13-10:15-2m--2760.15954mWRDhrangadhra, Gujarat
18.1CULChuli  10:30-10:30-  2774.7 5951mWRSaladi Railway Station, Gujarat
18.2SUKSukhpur  10:39-10:39-  2783.5 5939mWRsukhpur, Gujarat
18.3HVDHalvad  10:47-10:47-  2791.0 5946mWRHalvad, Gujarat
18.4DHNLDhanalaX  10:57-10:57-  2801.1 5938mWRState Highway 7, Gujarat
18.5DVYDevaliya  11:05-11:05-  2808.8 5934mWRState Highway 7, Gujarat
18.6KHXBKhakhrechi Bg  11:16-11:16-  2819.4 5916mWRState Highway 321, Gujarat
18.7WDHRWadharva  11:24-11:24-  2827.7 5910mWRWadharva, Gujarat
18.8MALBMaliya Miyana Junction (2)  11:34-11:34-  2837.0 596mWRMalia, Gujarat
18.9SRBRSurbari  11:50-11:50-  2853.0 596mWRNational Highway 27, Gujarat
18.10KATRKatariya  12:03-12:03-  2865.4 5943mWRNational Highway 27, Gujarat
19SIOBSamakhiali Junction (3)  12:14-12:16-2m12876.26442mWRSamakhiali, Gujarat
19.1VONBVondh (1)  12:26-12:26-  2886.9 6424mWRVondh, Gujarat
20BCOBBhachau (3)  12:33 12:31-12:35 12:33-2m12892.14844mWRBhachau, Gujarat
20.1CHIBChirai (3)  12:49-12:49-  2905.3 4812mWRChirai Moti, Gujarat
20.2BMSBBhimasar (3)  13:03-13:03-  2916.0 4826mWRSH 50, Gujarat
20.3GIMCGandhidham Cabin  13:16-13:16-  2927.0 4813mWRKandla Port Rd, Gujarat
21GIMBGandhidham Junction (3)X13:20-13:45-25m12930.02512mWRGandhidham, Gujarat
21.1GPPRGopalpur  13:59-13:59-  2935.9 2527mWRGandhidham, Gujarat
22AIAdipur Junction (2)X  14:08 14:06-14:10 14:08-2m--2938.82036mWRDist. Kachchh, Gujarat
23AJEAnjar (1)  14:32 14:30-14:34 14:32-2m12946.15453mWRAnjar, Gujarat
23.1RUTRatnal (1)  14:51-14:51-  2963.1 54120mWRSH 46, Gujarat
23.2KEMAKukma (1)  15:06-15:06-  2976.6 54128mWRKutch, Gujarat
23.3MADPMadhapur Road  15:10-15:10-  2980.5 54107mWRSH 42, Gujarat
24BHUJBhuj (3)•  15:20--12989.1-89mWRBhuj - 370201, Gujarat
Scroll to Top
Scroll to Bottom